Time;durP1;ratioP1;P1;durP2;ratioP2;P2;SDS_P1;SDS_P2;PMS_P1;PMS_P2;Temp;Humidity;BMP_temperature;BMP_pressure;BME280_temperature;BME280_humidity;BME280_pressure;Samples;Min_cycle;Max_cycle;Signal;HPM_P1;HPM_P2
2021/04/19 00:01:03;;;;;;;7.80;6.67;;;;;;;6.34;65.73;99547.48;1808950;78;22338;-42
2021/04/19 00:03:31;;;;;;;10.30;7.05;;;;;;;6.31;65.89;99541.41;1824157;77;21155;-42
2021/04/19 00:05:59;;;;;;;10.98;6.50;;;;;;;6.32;66.06;99544.89;1820516;78;21611;-42
2021/04/19 00:08:27;;;;;;;8.13;6.95;;;;;;;6.34;65.96;99540.75;1828102;77;21201;-42
2021/04/19 00:10:57;;;;;;;8.53;6.85;;;;;;;6.38;65.83;99540.35;1827392;77;21413;-41
2021/04/19 00:13:25;;;;;;;6.97;5.43;;;;;;;6.38;65.84;99544.39;1823350;78;21582;-42
2021/04/19 00:15:53;;;;;;;8.73;6.78;;;;;;;6.38;65.73;99547.09;1822329;78;21134;-42
2021/04/19 00:18:21;;;;;;;9.15;6.25;;;;;;;6.36;65.59;99545.81;1844156;75;21162;-41
2021/04/19 00:20:49;;;;;;;10.20;6.60;;;;;;;6.32;65.39;99547.03;1826371;78;21122;-41
2021/04/19 00:23:18;;;;;;;10.20;7.40;;;;;;;6.27;65.38;99541.84;1811247;77;21213;-41
2021/04/19 00:25:47;;;;;;;9.93;7.65;;;;;;;6.25;65.54;99537.33;1824150;77;21023;-42
2021/04/19 00:28:15;;;;;;;18.95;15.80;;;;;;;6.23;65.75;99534.19;1790637;78;21633;-42
2021/04/19 00:30:43;;;;;;;22.02;17.20;;;;;;;6.20;65.82;99536.72;1824076;78;21142;-42
2021/04/19 00:33:11;;;;;;;18.70;14.65;;;;;;;5.83;66.00;99484.51;1802612;78;21188;-42
2021/04/19 00:35:40;;;;;;;13.85;11.55;;;;;;;6.14;66.16;99529.41;1856743;77;21204;-42
2021/04/19 00:38:07;;;;;;;11.38;9.90;;;;;;;6.14;66.26;99528.07;1825263;77;21584;-42
2021/04/19 00:40:37;;;;;;;11.35;9.40;;;;;;;6.16;66.44;99520.44;1837997;77;21128;-41
2021/04/19 00:43:06;;;;;;;11.35;9.13;;;;;;;6.20;66.47;99521.36;1796378;77;21613;-41
2021/04/19 00:45:35;;;;;;;10.85;8.80;;;;;;;6.19;66.59;99519.81;1826922;77;21122;-41
2021/04/19 00:48:05;;;;;;;9.63;8.55;;;;;;;6.18;66.59;99523.61;1837957;77;21473;-42
2021/04/19 00:50:33;;;;;;;10.90;8.58;;;;;;;6.18;66.40;99520.91;1788280;78;21149;-41
2021/04/19 00:53:03;;;;;;;11.03;8.58;;;;;;;6.18;66.14;99526.30;1822229;77;21411;-42
2021/04/19 00:55:31;;;;;;;12.80;8.73;;;;;;;6.15;65.93;99520.78;1836539;77;21451;-42
2021/04/19 00:57:59;;;;;;;9.90;7.70;;;;;;;6.10;65.79;99519.05;1816134;78;21212;-42
2021/04/19 01:00:33;;;;;;;10.93;7.53;;;;;;;6.02;65.67;99521.23;1791993;77;21433;-42
2021/04/19 01:03:01;;;;;;;10.53;7.85;;;;;;;5.89;65.62;99520.91;1819917;78;21021;-42
2021/04/19 01:05:34;;;;;;;9.58;7.58;;;;;;;5.77;65.75;99516.73;1837760;77;21178;-42
2021/04/19 01:08:06;;;;;;;9.88;7.53;;;;;;;5.68;65.88;99524.30;1797395;78;21150;-42
2021/04/19 01:10:36;;;;;;;8.30;7.10;;;;;;;5.64;66.08;99520.67;1801116;79;21147;-42
2021/04/19 01:13:05;;;;;;;11.73;7.55;;;;;;;5.64;66.21;99515.84;1794933;79;21202;-42
2021/04/19 01:15:34;;;;;;;10.50;6.97;;;;;;;5.66;66.32;99521.70;1803622;78;21241;-42
2021/04/19 01:18:05;;;;;;;8.90;6.90;;;;;;;5.66;66.53;99513.64;1819788;78;21138;-42
2021/04/19 01:20:46;;;;;;;10.67;7.60;;;;;;;5.67;66.76;99511.95;1798695;78;21178;-42
2021/04/19 01:23:15;;;;;;;9.23;7.20;;;;;;;5.69;66.88;99516.46;1797777;78;22283;-41
2021/04/19 01:25:44;;;;;;;8.80;7.00;;;;;;;5.70;67.05;99513.22;1814158;78;21181;-42
2021/04/19 01:28:12;;;;;;;8.78;6.60;;;;;;;5.71;66.87;99514.80;1820011;78;21907;-42
2021/04/19 01:30:44;;;;;;;9.25;6.67;;;;;;;5.71;66.95;99509.42;1788461;78;21382;-42
2021/04/19 01:33:13;;;;;;;9.08;7.22;;;;;;;5.70;66.74;99505.15;1826998;77;21617;-42
2021/04/19 01:35:41;;;;;;;8.78;5.85;;;;;;;5.68;66.68;99511.39;1814168;77;21169;-41
2021/04/19 01:38:12;;;;;;;8.13;6.28;;;;;;;5.69;66.78;99511.08;1833608;77;22270;-41
2021/04/19 01:40:40;;;;;;;8.53;6.70;;;;;;;5.74;66.80;99510.11;1829698;78;21182;-42
2021/04/19 01:43:09;;;;;;;8.18;6.72;;;;;;;5.75;66.70;99506.31;1797701;78;22194;-42
2021/04/19 01:45:49;;;;;;;7.95;6.03;;;;;;;5.74;66.67;99507.98;1829321;78;21188;-42
2021/04/19 01:48:22;;;;;;;7.35;6.50;;;;;;;5.74;66.71;99513.35;1821251;78;21150;-42
2021/04/19 01:50:51;;;;;;;9.95;7.22;;;;;;;5.74;66.72;99512.01;1829261;78;21192;-42
2021/04/19 01:53:20;;;;;;;7.40;6.58;;;;;;;5.73;66.71;99509.08;1809000;78;21166;-42
2021/04/19 01:55:49;;;;;;;9.15;6.25;;;;;;;5.72;66.67;99508.84;1795748;78;21169;-42
2021/04/19 01:58:22;;;;;;;7.87;6.42;;;;;;;5.32;66.62;99451.38;1800111;78;21158;-41
2021/04/19 02:00:57;;;;;;;8.53;6.80;;;;;;;5.66;66.58;99510.36;1854973;77;21150;-42
2021/04/19 02:03:58;;;;;;;8.23;6.83;;;;;;;5.63;66.91;99508.33;1829525;78;21176;-41
2021/04/19 02:07:01;;;;;;;8.78;7.00;;;;;;;5.62;67.06;99512.13;1836720;77;21164;-41
2021/04/19 02:09:56;;;;;;;7.70;6.60;;;;;;;5.60;67.34;99511.67;1844207;77;21146;-42
2021/04/19 02:12:46;;;;;;;7.47;6.67;;;;;;;5.57;67.55;99504.23;1828301;78;21164;-42
2021/04/19 02:15:48;;;;;;;8.83;7.25;;;;;;;5.55;67.65;99502.99;1834261;77;21386;-42
2021/04/19 02:18:54;;;;;;;9.00;7.08;;;;;;;5.54;67.56;99508.92;1840786;75;21188;-42
2021/04/19 02:21:51;;;;;;;8.18;6.80;;;;;;;5.52;67.37;99507.09;1839776;77;21051;-42
2021/04/19 02:24:25;;;;;;;9.23;6.78;;;;;;;5.50;67.29;99505.30;1840922;77;21734;-42
2021/04/19 02:27:00;;;;;;;8.33;6.70;;;;;;;5.45;67.06;99512.20;1828485;77;21403;-42
2021/04/19 02:29:41;;;;;;;9.90;6.72;;;;;;;5.41;67.04;99505.10;1853205;77;21156;-42
2021/04/19 02:32:17;;;;;;;9.30;6.37;;;;;;;5.37;67.08;99504.17;1846847;77;21373;-42
2021/04/19 02:34:48;;;;;;;9.63;6.78;;;;;;;5.34;67.11;99500.76;1801549;78;21607;-42
2021/04/19 02:37:18;;;;;;;8.60;6.30;;;;;;;5.38;67.16;99502.48;1857416;77;21639;-42
2021/04/19 02:39:48;;;;;;;8.50;5.70;;;;;;;5.47;67.11;99499.79;1845692;77;21568;-42
2021/04/19 02:42:17;;;;;;;7.47;5.78;;;;;;;5.45;67.32;99494.72;1829171;77;21178;-42
2021/04/19 02:44:47;;;;;;;7.78;6.05;;;;;;;5.45;67.37;99504.13;1835292;77;21376;-42
2021/04/19 02:47:32;;;;;;;7.92;5.70;;;;;;;5.44;67.20;99505.23;1740705;81;21217;-42
2021/04/19 02:50:23;;;;;;;8.55;6.10;;;;;;;5.43;67.27;99496.94;1803541;78;22728;-42
2021/04/19 02:52:51;;;;;;;6.72;5.80;;;;;;;5.39;67.11;99505.41;1796868;79;20973;-42
2021/04/19 02:55:26;;;;;;;7.08;5.55;;;;;;;5.37;67.00;99506.30;1800283;79;22433;-42
2021/04/19 02:58:04;;;;;;;8.60;5.47;;;;;;;5.34;67.14;99498.86;1785591;79;21027;-42
2021/04/19 03:00:36;;;;;;;7.62;5.30;;;;;;;5.32;67.23;99497.07;1775799;79;21055;-41
2021/04/19 03:03:09;;;;;;;8.25;5.20;;;;;;;5.32;67.19;99499.76;1777890;79;21153;-41
2021/04/19 03:05:38;;;;;;;8.38;5.62;;;;;;;5.38;67.13;99499.80;1775456;80;20988;-42
2021/04/19 03:08:12;;;;;;;7.05;5.75;;;;;;;5.43;67.02;99494.80;1799158;79;21367;-42
2021/04/19 03:10:51;;;;;;;7.17;5.87;;;;;;;5.44;67.27;99498.52;1780535;79;21309;-41
2021/04/19 03:13:20;;;;;;;9.60;6.20;;;;;;;5.44;67.36;99494.48;1759890;80;21044;-42
2021/04/19 03:15:49;;;;;;;9.40;6.08;;;;;;;5.45;67.43;99497.97;1775461;79;21612;-41
2021/04/19 03:18:18;;;;;;;8.40;6.08;;;;;;;5.45;67.49;99497.41;1790915;79;21581;-41
2021/04/19 03:21:12;;;;;;;6.53;5.58;;;;;;;5.48;67.32;99506.17;1807339;79;22479;-41
2021/04/19 03:23:45;;;;;;;6.78;5.45;;;;;;;5.45;67.22;99502.00;1779690;79;21051;-42
2021/04/19 03:26:17;;;;;;;6.72;5.60;;;;;;;5.41;67.31;99511.82;1785478;79;21016;-42
2021/04/19 03:28:46;;;;;;;6.83;5.17;;;;;;;5.40;67.41;99511.03;1764086;79;21170;-41
2021/04/19 03:31:26;;;;;;;6.00;5.40;;;;;;;5.45;67.62;99513.55;1775654;79;21150;-42
2021/04/19 03:34:00;;;;;;;7.03;5.70;;;;;;;5.51;67.52;99518.98;1781114;79;21395;-42
2021/04/19 03:36:29;;;;;;;7.67;6.08;;;;;;;5.56;67.67;99520.71;1797125;79;21166;-41
2021/04/19 03:38:58;;;;;;;7.60;5.62;;;;;;;5.59;67.83;99520.06;1749462;80;21289;-41
2021/04/19 03:41:26;;;;;;;6.92;5.62;;;;;;;5.63;67.90;99519.09;1773477;79;21613;-41
2021/04/19 03:43:57;;;;;;;6.83;5.53;;;;;;;5.67;67.97;99515.98;1745912;77;21608;-41
2021/04/19 03:46:25;;;;;;;7.20;5.72;;;;;;;5.72;68.19;99515.56;1789812;79;21360;-41
2021/04/19 03:49:05;;;;;;;6.30;5.17;;;;;;;5.36;68.39;99454.98;1784703;79;21189;-41
2021/04/19 03:53:13;;;;;;;6.30;5.53;;;;;;;5.93;68.53;99511.08;1756764;79;22820;-42
2021/04/19 03:55:43;;;;;;;7.35;5.92;;;;;;;5.92;68.56;99518.91;1742473;82;21000;-42
2021/04/19 03:58:12;;;;;;;6.60;5.58;;;;;;;5.98;68.63;99517.62;1723601;82;21480;-41
2021/04/19 04:00:41;;;;;;;;;;;;;;;6.04;68.79;99509.60;1741667;82;21036;-41
2021/04/19 04:03:14;;;;;;;9.25;6.53;;;;;;;6.10;68.84;99512.31;1738764;82;20181;-42
2021/04/19 04:05:45;;;;;;;7.83;6.05;;;;;;;6.07;69.25;99515.11;1710118;82;21104;-42
2021/04/19 04:08:18;;;;;;;7.85;6.30;;;;;;;6.18;69.27;99512.84;1719387;82;21075;-41
2021/04/19 04:10:46;;;;;;;7.20;5.87;;;;;;;6.27;69.34;99510.88;1733917;82;22286;-41
2021/04/19 04:13:14;;;;;;;9.68;7.35;;;;;;;6.42;69.37;99511.65;1730958;82;21210;-41
2021/04/19 04:15:54;;;;;;;8.88;7.80;;;;;;;6.61;69.30;99512.53;1736031;82;22150;-42
2021/04/19 04:18:21;;;;;;;10.03;8.68;;;;;;;6.73;69.36;99518.55;1707206;82;21182;-42
2021/04/19 04:20:50;;;;;;;7.37;6.37;;;;;;;6.86;69.38;99514.78;1727416;82;21115;-41
2021/04/19 04:23:20;;;;;;;6.97;6.12;;;;;;;6.91;69.24;99501.11;1729640;82;21382;-42
2021/04/19 04:25:48;;;;;;;6.45;5.35;;;;;;;7.07;69.19;99514.17;1717417;82;21577;-41
2021/04/19 04:28:18;;;;;;;6.30;5.70;;;;;;;7.14;69.05;99514.44;1687708;82;21174;-41
2021/04/19 04:30:48;;;;;;;6.33;5.28;;;;;;;7.21;68.98;99511.97;1732229;82;21194;-41
2021/04/19 04:33:21;;;;;;;6.00;5.28;;;;;;;7.30;69.02;99517.30;1740930;81;21177;-41
2021/04/19 04:35:51;;;;;;;;;;;;;;;7.42;69.04;99510.01;1721868;82;23657;-42
2021/04/19 04:38:21;;;;;;;9.85;5.97;;;;;;;7.53;69.03;99509.58;1717224;82;20282;-41
2021/04/19 04:40:51;;;;;;;;;;;;;;;7.53;69.18;99510.37;1720902;82;21036;-42
2021/04/19 04:43:23;;;;;;;6.78;5.70;;;;;;;7.64;69.09;99509.38;1719419;82;20282;-41
2021/04/19 04:45:57;;;;;;;7.00;6.22;;;;;;;7.64;69.12;99512.08;1733580;82;21969;-42
2021/04/19 04:48:30;;;;;;;7.28;5.72;;;;;;;7.76;68.95;99516.91;1739221;81;21456;-41
2021/04/19 04:51:09;;;;;;;5.72;4.78;;;;;;;7.82;68.71;99513.43;1742032;82;21079;-42
2021/04/19 04:53:40;;;;;;;5.30;4.78;;;;;;;7.91;68.37;99511.41;1734576;82;21068;-42
2021/04/19 04:56:08;;;;;;;6.72;5.30;;;;;;;8.01;68.20;99513.66;1718014;82;21209;-42
2021/04/19 04:58:36;;;;;;;6.53;5.45;;;;;;;8.08;68.04;99514.45;1707143;82;21170;-42
2021/04/19 05:01:07;;;;;;;6.30;5.40;;;;;;;8.16;67.89;99510.27;1724799;82;21252;-42
2021/04/19 05:03:37;;;;;;;7.75;5.72;;;;;;;8.23;67.74;99509.12;1732376;82;21150;-42
2021/04/19 05:06:07;;;;;;;7.28;6.05;;;;;;;8.29;67.62;99504.28;1726414;82;21166;-42
2021/04/19 05:08:38;;;;;;;;;;;;;;;8.36;67.59;99509.14;1725632;82;21206;-42
2021/04/19 05:11:07;;;;;;;7.60;6.00;;;;;;;8.42;67.53;99502.39;1732330;82;20278;-42
2021/04/19 05:13:37;;;;;;;7.37;6.30;;;;;;;8.36;67.81;99505.88;1735888;82;21308;-42
2021/04/19 05:16:06;;;;;;;8.60;7.12;;;;;;;8.48;67.88;99513.16;1736226;82;21198;-42
2021/04/19 05:18:34;;;;;;;7.70;6.90;;;;;;;8.62;67.69;99502.77;1739299;82;21187;-42
2021/04/19 05:21:05;;;;;;;7.17;5.92;;;;;;;8.75;67.47;99507.02;1722447;82;21174;-42
2021/04/19 05:23:33;;;;;;;5.85;5.25;;;;;;;8.84;67.37;99506.30;1727564;82;21181;-42
2021/04/19 05:26:02;;;;;;;5.62;4.53;;;;;;;8.93;67.18;99506.94;1718581;82;21203;-41
2021/04/19 05:28:31;;;;;;;5.40;4.87;;;;;;;9.03;66.99;99509.16;1718688;82;21225;-42
2021/04/19 05:31:00;;;;;;;5.42;4.35;;;;;;;9.11;66.79;99509.55;1717148;83;21191;-41
2021/04/19 05:33:28;;;;;;;5.85;4.62;;;;;;;9.15;66.59;99506.94;1734223;82;21173;-42
2021/04/19 05:35:57;;;;;;;4.83;4.10;;;;;;;9.19;66.60;99511.11;1732814;82;21170;-40
2021/04/19 05:38:25;;;;;;;4.50;3.98;;;;;;;9.23;66.54;99512.78;1727710;82;21199;-40
2021/04/19 05:40:54;;;;;;;9.88;4.12;;;;;;;9.33;66.41;99510.13;1733150;82;21137;-40
2021/04/19 05:43:23;;;;;;;5.58;4.28;;;;;;;9.44;66.20;99510.61;1745974;82;21110;-39
2021/04/19 05:45:51;;;;;;;5.83;4.28;;;;;;;9.58;65.84;99511.56;1712721;82;21218;-39
2021/04/19 05:48:19;;;;;;;6.33;4.20;;;;;;;9.65;65.38;99513.07;1741499;82;21190;-39
2021/04/19 05:50:49;;;;;;;5.40;4.45;;;;;;;9.74;65.41;99504.20;1735547;81;21132;-39
2021/04/19 05:53:17;;;;;;;5.90;4.40;;;;;;;9.85;65.41;99503.91;1708784;82;21206;-39
2021/04/19 05:55:44;;;;;;;6.70;4.70;;;;;;;9.95;65.21;99499.88;1732120;82;21159;-39
2021/04/19 05:58:28;;;;;;;7.20;4.92;;;;;;;10.00;64.95;99500.39;1720440;82;21179;-39
2021/04/19 06:01:05;;;;;;;5.47;4.53;;;;;;;10.03;65.27;99494.83;1731669;81;21179;-39
2021/04/19 06:03:50;;;;;;;5.50;4.37;;;;;;;10.11;65.36;99501.21;1716853;82;22122;-39
2021/04/19 06:06:43;;;;;;;5.05;3.37;;;;;;;10.20;65.27;99501.83;1696480;82;21189;-39
2021/04/19 06:09:44;;;;;;;3.40;2.80;;;;;;;10.27;64.68;99497.91;1714672;82;21138;-39
2021/04/19 06:12:26;;;;;;;3.57;3.00;;;;;;;10.42;64.37;99493.81;1678652;82;21208;-39
2021/04/19 06:14:59;;;;;;;3.65;2.70;;;;;;;10.58;63.38;99495.11;1680362;82;21701;-39
2021/04/19 06:17:26;;;;;;;3.50;2.85;;;;;;;10.67;62.90;99494.90;1693978;83;21372;-39
2021/04/19 06:19:55;;;;;;;3.65;2.92;;;;;;;10.75;62.18;99494.68;1711273;82;21210;-39
2021/04/19 06:22:23;;;;;;;5.12;3.12;;;;;;;10.76;62.10;99485.41;1718966;82;21182;-39
2021/04/19 06:24:51;;;;;;;3.40;2.92;;;;;;;10.83;61.15;99489.63;1704652;82;21162;-39
2021/04/19 06:27:24;;;;;;;3.30;3.00;;;;;;;10.86;60.56;99490.27;1719007;82;21598;-39
2021/04/19 06:29:52;;;;;;;3.27;2.75;;;;;;;10.88;60.30;99488.56;1704986;82;21340;-40
2021/04/19 06:32:22;;;;;;;3.70;3.20;;;;;;;10.95;60.08;99490.60;1705598;82;21207;-40
2021/04/19 06:34:50;;;;;;;;;;;;;;;11.00;59.38;99491.10;1732088;82;21125;-40
2021/04/19 06:37:20;;;;;;;4.87;3.02;;;;;;;11.02;59.24;99490.75;1705162;82;20489;-40
2021/04/19 06:39:48;;;;;;;2.75;2.55;;;;;;;10.96;60.06;99492.97;1705010;82;21100;-40
2021/04/19 06:42:16;;;;;;;3.85;3.00;;;;;;;11.08;60.00;99484.69;1731943;82;21279;-41
2021/04/19 06:44:45;;;;;;;4.67;3.05;;;;;;;11.24;59.02;99484.00;1725988;82;21017;-41
2021/04/19 06:47:13;;;;;;;3.55;3.10;;;;;;;11.40;59.16;99480.39;1663482;85;21227;-41
2021/04/19 06:49:41;;;;;;;3.60;3.10;;;;;;;11.54;58.68;99482.78;1669931;85;21763;-41
2021/04/19 06:52:09;;;;;;;3.40;2.92;;;;;;;11.69;57.92;99474.30;1726628;82;21310;-44
2021/04/19 06:54:38;;;;;;;4.45;3.52;;;;;;;11.82;56.97;99472.19;1683206;82;22311;-45
2021/04/19 06:57:08;;;;;;;3.72;3.08;;;;;;;11.95;57.71;99473.57;1713307;82;21044;-45
2021/04/19 06:59:36;;;;;;;;;;;;;;;12.06;56.94;99475.28;1708256;82;20997;-45
2021/04/19 07:02:05;;;;;;;3.47;2.70;;;;;;;12.16;56.31;99471.14;1732503;82;20178;-45
2021/04/19 07:04:33;;;;;;;3.98;2.98;;;;;;;12.14;56.78;99466.67;1707994;82;21029;-45
2021/04/19 07:07:01;;;;;;;2.95;2.60;;;;;;;12.24;56.37;99473.41;1667987;85;22124;-45
2021/04/19 07:09:35;;;;;;;4.30;2.62;;;;;;;12.37;55.95;99467.94;1725701;82;21183;-45
2021/04/19 07:12:08;;;;;;;3.20;2.80;;;;;;;12.53;55.68;99465.27;1727210;82;21165;-45
2021/04/19 07:14:40;;;;;;;3.15;2.80;;;;;;;12.73;55.04;99464.50;1706359;81;21206;-45
2021/04/19 07:17:08;;;;;;;3.30;3.00;;;;;;;12.94;55.07;99463.97;1709054;82;21198;-45
2021/04/19 07:19:39;;;;;;;3.60;2.60;;;;;;;13.11;54.59;99469.41;1696376;82;21439;-45
2021/04/19 07:22:11;;;;;;;2.45;2.25;;;;;;;13.23;54.44;99460.41;1696800;83;21175;-45
2021/04/19 07:24:39;;;;;;;6.85;3.00;;;;;;;13.37;53.73;99457.83;1697488;84;21021;-45
2021/04/19 07:27:09;;;;;;;3.52;2.77;;;;;;;13.52;53.71;99449.78;1671371;84;21790;-45
2021/04/19 07:29:40;;;;;;;4.67;3.42;;;;;;;13.67;53.16;99451.46;1658909;84;21218;-42
2021/04/19 07:32:08;;;;;;;3.83;3.30;;;;;;;13.86;52.04;99448.48;1685721;84;21743;-42
2021/04/19 07:34:37;;;;;;;5.75;3.42;;;;;;;13.97;51.62;99441.17;1677592;84;21154;-43
2021/04/19 07:37:07;;;;;;;4.45;3.35;;;;;;;14.08;51.29;99440.67;1687770;84;21439;-42
2021/04/19 07:39:39;;;;;;;4.70;3.50;;;;;;;14.23;51.25;99436.08;1676306;85;21298;-42
2021/04/19 07:42:09;;;;;;;22.25;8.20;;;;;;;14.31;49.42;99431.63;1664700;85;21126;-42
2021/04/19 07:44:47;;;;;;;67.65;20.77;;;;;;;14.29;50.58;99431.22;1662240;85;22252;-43
2021/04/19 07:47:24;;;;;;;28.10;11.28;;;;;;;14.30;51.90;99435.52;1638675;87;21186;-42
2021/04/19 07:50:10;;;;;;;4.55;3.40;;;;;;;14.39;52.36;99439.28;1639754;86;21211;-42
2021/04/19 07:53:05;;;;;;;5.25;3.70;;;;;;;14.54;50.58;99434.09;1656746;85;21197;-43
2021/04/19 07:55:39;;;;;;;18.48;7.70;;;;;;;14.68;49.95;99438.24;1690794;84;21607;-42
2021/04/19 07:58:21;;;;;;;10.88;5.90;;;;;;;14.68;49.62;99433.36;1663844;84;21353;-42
2021/04/19 08:01:01;;;;;;;38.90;12.88;;;;;;;14.65;49.11;99434.14;1655856;86;21210;-42
2021/04/19 08:03:42;;;;;;;47.05;14.30;;;;;;;14.57;49.42;99431.20;1637679;86;21188;-42
2021/04/19 08:06:21;;;;;;;4.60;3.47;;;;;;;14.64;50.26;99429.84;1682184;84;21127;-43
2021/04/19 08:08:50;;;;;;;4.80;3.72;;;;;;;14.83;49.69;99425.42;1653707;86;21654;-43
2021/04/19 08:11:18;;;;;;;4.55;3.27;;;;;;;15.02;49.20;99422.92;1664237;86;21457;-43
2021/04/19 08:13:47;;;;;;;6.03;3.80;;;;;;;15.15;48.02;99424.14;1645754;86;21238;-43
2021/04/19 08:16:26;;;;;;;5.30;3.62;;;;;;;15.18;46.35;99423.35;1656720;86;21680;-43
2021/04/19 08:19:03;;;;;;;5.15;4.17;;;;;;;15.21;46.37;99416.52;1650581;86;21270;-42
2021/04/19 08:21:34;;;;;;;12.28;4.50;;;;;;;15.30;45.84;99414.77;1642611;86;21166;-43
2021/04/19 08:24:15;;;;;;;9.43;4.60;;;;;;;15.42;46.60;99421.81;1645546;86;22234;-43
2021/04/19 08:26:58;;;;;;;7.40;4.10;;;;;;;15.72;46.79;99405.05;1830981;77;22703;-41
2021/04/19 08:29:45;;;;;;;6.83;4.37;;;;;;;15.89;46.68;99400.13;1798621;79;21821;-41
2021/04/19 08:32:16;;;;;;;5.72;3.72;;;;;;;16.08;44.59;99396.37;1776799;79;21334;-40
2021/04/19 08:34:44;;;;;;;5.20;3.83;;;;;;;16.24;44.67;99400.63;1751150;79;21055;-42
2021/04/19 08:37:13;;;;;;;4.40;3.47;;;;;;;16.27;44.00;99398.45;1778707;79;21031;-43
2021/04/19 08:39:43;;;;;;;4.47;3.08;;;;;;;16.35;44.11;99401.38;1767337;80;21264;-43
2021/04/19 08:42:13;;;;;;;3.95;3.17;;;;;;;16.50;45.15;99396.03;1774467;79;21016;-43
2021/04/19 08:44:42;;;;;;;5.30;3.45;;;;;;;16.50;42.87;99398.19;1796037;79;22186;-43
2021/04/19 08:47:11;;;;;;;5.30;4.15;;;;;;;16.28;42.40;99400.02;1722715;83;21447;-43
2021/04/19 08:49:39;;;;;;;5.15;4.17;;;;;;;15.93;42.83;99401.67;1742365;82;28799;-43
2021/04/19 08:52:08;;;;;;;4.50;4.05;;;;;;;15.70;44.34;99398.59;1736104;81;21178;-42
2021/04/19 08:54:36;;;;;;;5.47;3.58;;;;;;;15.71;44.50;99393.33;1654775;83;21684;-43
2021/04/19 08:57:05;;;;;;;4.40;3.10;;;;;;;15.89;44.04;99387.82;1720400;82;21587;-42
2021/04/19 08:59:34;;;;;;;7.53;4.05;;;;;;;16.03;43.51;99398.72;1763964;80;21633;-43
2021/04/19 09:02:04;;;;;;;5.20;3.95;;;;;;;16.11;43.88;99392.08;1736726;82;21150;-43
2021/04/19 09:04:32;;;;;;;4.40;4.00;;;;;;;16.21;43.08;99392.63;1718516;82;21182;-43
2021/04/19 09:07:02;;;;;;;5.20;3.70;;;;;;;16.30;43.07;99392.98;1740027;82;21151;-43
2021/04/19 09:09:36;;;;;;;5.28;4.58;;;;;;;16.30;42.60;99388.10;1732263;82;21193;-42
2021/04/19 09:12:16;;;;;;;5.50;3.55;;;;;;;16.20;42.26;99391.06;1742308;81;21177;-43
2021/04/19 09:14:44;;;;;;;5.62;4.67;;;;;;;16.15;43.16;99393.42;1743320;80;21008;-43
2021/04/19 09:17:25;;;;;;;4.83;3.30;;;;;;;16.36;42.36;99394.73;1769433;81;21187;-43
2021/04/19 09:19:58;;;;;;;8.15;4.58;;;;;;;16.57;41.20;99382.30;1743034;82;22141;-43
2021/04/19 09:22:27;;;;;;;5.78;4.05;;;;;;;16.55;41.30;99390.73;1736456;82;21371;-42
2021/04/19 09:25:07;;;;;;;11.12;4.78;;;;;;;16.38;41.71;99388.25;1735427;81;21255;-43
2021/04/19 09:27:54;;;;;;;;;;;;;;;16.11;41.31;99389.92;1728141;82;21580;-42
2021/04/19 09:30:27;;;;;;;5.65;4.30;;;;;;;15.73;42.45;99393.73;1727743;83;20316;-42
2021/04/19 09:33:10;;;;;;;5.85;4.25;;;;;;;15.30;43.75;99393.53;1771088;79;21885;-43
2021/04/19 09:35:45;;;;;;;5.65;3.90;;;;;;;15.18;44.19;99396.83;1773609;79;21361;-44
2021/04/19 09:38:38;;;;;;;4.33;3.77;;;;;;;15.02;43.28;99386.85;1795245;79;21619;-42
2021/04/19 09:41:08;;;;;;;4.20;3.22;;;;;;;14.86;43.77;99401.47;1796213;79;21125;-43
2021/04/19 09:43:49;;;;;;;4.08;3.15;;;;;;;14.94;43.48;99396.20;1795669;79;21673;-43
2021/04/19 09:46:23;;;;;;;4.45;3.27;;;;;;;15.25;42.66;99395.28;1774574;79;21881;-43
2021/04/19 09:49:00;;;;;;;6.33;3.98;;;;;;;15.68;42.93;99406.42;1795413;79;21178;-44
2021/04/19 09:51:37;;;;;;;5.20;3.77;;;;;;;16.12;42.71;99396.96;1786742;79;21563;-45
2021/04/19 09:54:12;;;;;;;5.42;4.37;;;;;;;16.49;43.01;99391.15;1726226;82;21143;-45
2021/04/19 09:56:48;;;;;;;4.62;3.87;;;;;;;16.72;41.59;99387.92;1717004;82;21123;-44
2021/04/19 09:59:20;;;;;;;5.65;3.70;;;;;;;16.65;41.85;99404.41;1755660;81;21886;-45
2021/04/19 10:01:54;;;;;;;6.55;4.55;;;;;;;16.56;42.72;99401.84;1726951;82;21378;-45
2021/04/19 10:04:22;;;;;;;6.15;3.92;;;;;;;16.45;42.41;99399.19;1736993;82;21174;-45
2021/04/19 10:06:53;;;;;;;3.17;2.55;;;;;;;16.31;42.39;99404.72;1723807;82;21032;-45
2021/04/19 10:09:23;;;;;;;2.92;2.20;;;;;;;16.19;40.77;99407.86;1735905;82;21146;-45
2021/04/19 10:12:02;;;;;;;;;;;;;;;16.12;40.53;99404.55;1790732;79;21179;-45
2021/04/19 10:14:37;;;;;;;3.85;2.62;;;;;;;16.01;40.40;99404.61;1786632;79;21356;-45
2021/04/19 10:17:21;;;;;;;4.58;2.67;;;;;;;15.79;40.98;99403.66;1782312;79;21055;-45
2021/04/19 10:19:50;;;;;;;6.08;3.62;;;;;;;15.75;41.41;99411.08;1781503;79;21159;-46
2021/04/19 10:22:18;;;;;;;9.03;3.72;;;;;;;15.70;40.79;99412.26;1790179;79;21147;-45
2021/04/19 10:24:56;;;;;;;5.20;2.98;;;;;;;15.53;40.64;99408.97;1790861;79;21103;-45
2021/04/19 10:27:32;;;;;;;5.10;3.33;;;;;;;15.36;41.26;99411.06;1778513;79;21850;-45
2021/04/19 10:30:16;;;;;;;3.87;3.00;;;;;;;15.22;41.95;99417.30;1770529;79;21506;-45
2021/04/19 10:32:44;;;;;;;4.08;3.25;;;;;;;15.14;42.83;99415.16;1782131;79;21163;-45
2021/04/19 10:35:41;;;;;;;4.30;3.35;;;;;;;15.14;43.20;99413.80;1780052;79;21095;-45
2021/04/19 10:38:11;;;;;;;3.40;3.10;;;;;;;15.13;43.45;99410.86;1782598;79;21131;-45
2021/04/19 10:40:39;;;;;;;2.22;1.90;;;;;;;15.07;42.87;99413.77;1793571;79;21351;-45
2021/04/19 10:43:13;;;;;;;2.77;2.30;;;;;;;14.98;42.06;99413.38;1768735;79;21163;-45
2021/04/19 10:45:42;;;;;;;2.95;2.20;;;;;;;14.86;41.82;99414.33;1765419;79;21174;-45
2021/04/19 10:48:22;;;;;;;2.42;2.10;;;;;;;14.82;41.96;99421.13;1765472;79;21645;-45
2021/04/19 10:50:51;;;;;;;;;;;;;;;14.79;41.75;99417.81;1755344;81;22257;-45
2021/04/19 10:53:39;;;;;;;3.33;2.05;;;;;;;14.78;42.60;99419.76;1792086;79;21305;-45
2021/04/19 10:56:10;;;;;;;3.10;2.65;;;;;;;14.71;42.56;99414.30;1790607;79;21163;-45
2021/04/19 10:58:38;;;;;;;4.28;3.17;;;;;;;14.78;43.31;99412.15;1789851;79;21423;-45
2021/04/19 11:01:08;;;;;;;;;;;;;;;14.91;43.06;99411.22;1795196;79;21752;-46
2021/04/19 11:03:37;;;;;;;4.37;3.10;;;;;;;14.95;42.51;99408.70;1794897;79;20298;-45
2021/04/19 11:06:09;;;;;;;4.65;2.70;;;;;;;14.86;43.18;99399.31;1795499;79;21368;-45
2021/04/19 11:08:54;;;;;;;4.80;2.70;;;;;;;14.91;43.33;99411.98;1789969;79;21186;-45
2021/04/19 11:11:40;;;;;;;3.65;2.62;;;;;;;14.91;42.85;99411.98;1790816;79;21657;-45
2021/04/19 11:14:24;;;;;;;3.35;2.70;;;;;;;14.83;42.21;99404.95;1775895;79;21624;-45
2021/04/19 11:17:06;;;;;;;3.52;2.42;;;;;;;14.79;42.55;99403.59;1767091;79;21527;-45
2021/04/19 11:19:45;;;;;;;3.25;2.33;;;;;;;14.78;42.70;99404.75;1789096;79;22244;-46
2021/04/19 11:22:34;;;;;;;4.17;2.50;;;;;;;14.88;43.75;99407.30;1788213;79;21194;-45
2021/04/19 11:25:26;;;;;;;2.80;2.50;;;;;;;15.18;43.53;99394.09;1789092;79;21159;-46
2021/04/19 11:28:14;;;;;;;;;;;;;;;15.50;41.36;99390.57;1797562;79;21185;-46
2021/04/19 11:30:43;;;;;;;2.60;2.00;;;;;;;15.71;40.78;99389.23;1812975;77;20304;-46
2021/04/19 11:33:27;;;;;;;3.47;1.80;;;;;;;15.58;39.74;99394.91;1740500;80;22580;-45
2021/04/19 11:36:03;;;;;;;3.22;2.33;;;;;;;15.47;39.83;99381.80;1807802;79;21644;-45
2021/04/19 11:38:31;;;;;;;2.12;1.62;;;;;;;15.44;40.46;99390.80;1803920;78;21134;-45
2021/04/19 11:41:03;;;;;;;3.92;2.50;;;;;;;15.44;40.91;99392.16;1798232;79;21489;-45
2021/04/19 11:43:33;;;;;;;5.22;2.80;;;;;;;15.46;40.04;99382.97;1807535;79;21450;-45
2021/04/19 11:46:10;;;;;;;;;;;;;;;15.41;40.60;99386.09;1804308;79;21207;-45
2021/04/19 11:48:40;;;;;;;3.55;2.72;;;;;;;15.34;41.65;99386.11;1793912;79;20291;-45
2021/04/19 11:51:09;;;;;;;2.27;2.08;;;;;;;15.13;41.72;99382.19;1800943;79;21166;-45
2021/04/19 11:53:40;;;;;;;3.02;2.33;;;;;;;15.11;42.75;99379.06;1809526;79;21098;-46
2021/04/19 11:56:10;;;;;;;3.17;2.75;;;;;;;15.17;42.69;99378.09;1803750;79;21158;-46
2021/04/19 11:58:49;;;;;;;3.40;2.37;;;;;;;15.16;42.04;99380.04;1808574;79;21195;-45
2021/04/19 12:01:20;;;;;;;3.67;2.70;;;;;;;15.13;41.84;99380.83;1805619;79;21173;-45
2021/04/19 12:03:50;;;;;;;3.27;2.60;;;;;;;15.01;41.61;99375.73;1804981;79;21180;-45
2021/04/19 12:06:20;;;;;;;3.80;2.60;;;;;;;15.12;42.32;99372.44;1801306;79;21553;-45
2021/04/19 12:08:50;;;;;;;2.42;2.20;;;;;;;15.30;41.57;99374.41;1794145;79;21311;-45